sensor_id;sensor_type;location;lat;lon;timestamp;temperature;humidity
44894;DHT22;30625;52.206;21.030;2022-10-31T00:01:24;10.50;99.90
44894;DHT22;30625;52.206;21.030;2022-10-31T00:03:50;10.50;99.90
44894;DHT22;30625;52.206;21.030;2022-10-31T00:06:16;10.60;99.90
44894;DHT22;30625;52.206;21.030;2022-10-31T00:08:49;10.60;99.90
44894;DHT22;30625;52.206;21.030;2022-10-31T00:11:16;10.60;99.90
44894;DHT22;30625;52.206;21.030;2022-10-31T00:13:42;10.50;99.90
44894;DHT22;30625;52.206;21.030;2022-10-31T00:16:34;10.50;99.90
44894;DHT22;30625;52.206;21.030;2022-10-31T00:19:02;10.40;99.90
44894;DHT22;30625;52.206;21.030;2022-10-31T00:21:29;10.50;99.90
44894;DHT22;30625;52.206;21.030;2022-10-31T00:23:56;10.50;99.90
44894;DHT22;30625;52.206;21.030;2022-10-31T00:26:21;10.50;99.90
44894;DHT22;30625;52.206;21.030;2022-10-31T00:28:47;10.50;99.90
44894;DHT22;30625;52.206;21.030;2022-10-31T00:31:13;10.50;99.90
44894;DHT22;30625;52.206;21.030;2022-10-31T00:33:40;10.50;99.90
44894;DHT22;30625;52.206;21.030;2022-10-31T00:36:07;10.40;99.90
44894;DHT22;30625;52.206;21.030;2022-10-31T00:38:35;10.40;99.90
44894;DHT22;30625;52.206;21.030;2022-10-31T00:41:01;10.50;99.90
44894;DHT22;30625;52.206;21.030;2022-10-31T00:43:27;10.50;99.90
44894;DHT22;30625;52.206;21.030;2022-10-31T00:45:52;10.50;99.90
44894;DHT22;30625;52.206;21.030;2022-10-31T00:48:18;10.50;99.90
44894;DHT22;30625;52.206;21.030;2022-10-31T00:50:44;10.50;99.90
44894;DHT22;30625;52.206;21.030;2022-10-31T00:53:10;10.40;99.90
44894;DHT22;30625;52.206;21.030;2022-10-31T00:55:36;10.30;99.90
44894;DHT22;30625;52.206;21.030;2022-10-31T00:58:01;10.30;99.90
44894;DHT22;30625;52.206;21.030;2022-10-31T01:00:27;10.40;99.90
44894;DHT22;30625;52.206;21.030;2022-10-31T01:02:53;10.40;99.90
44894;DHT22;30625;52.206;21.030;2022-10-31T01:05:19;10.40;99.90
44894;DHT22;30625;52.206;21.030;2022-10-31T01:07:44;10.30;99.90
44894;DHT22;30625;52.206;21.030;2022-10-31T01:10:11;10.40;99.90
44894;DHT22;30625;52.206;21.030;2022-10-31T01:12:39;10.40;99.90
44894;DHT22;30625;52.206;21.030;2022-10-31T01:15:05;10.40;99.90
44894;DHT22;30625;52.206;21.030;2022-10-31T01:17:31;10.30;99.90
44894;DHT22;30625;52.206;21.030;2022-10-31T01:19:57;10.30;99.90
44894;DHT22;30625;52.206;21.030;2022-10-31T01:22:23;10.30;99.90
44894;DHT22;30625;52.206;21.030;2022-10-31T01:24:49;10.30;99.90
44894;DHT22;30625;52.206;21.030;2022-10-31T01:27:14;10.20;99.90
44894;DHT22;30625;52.206;21.030;2022-10-31T01:29:40;10.20;99.90
44894;DHT22;30625;52.206;21.030;2022-10-31T01:32:06;10.20;99.90
44894;DHT22;30625;52.206;21.030;2022-10-31T01:34:31;10.20;99.90
44894;DHT22;30625;52.206;21.030;2022-10-31T01:36:57;10.20;99.90
44894;DHT22;30625;52.206;21.030;2022-10-31T01:39:22;10.20;99.90
44894;DHT22;30625;52.206;21.030;2022-10-31T01:41:51;10.20;99.90
44894;DHT22;30625;52.206;21.030;2022-10-31T01:46:50;10.20;99.90
44894;DHT22;30625;52.206;21.030;2022-10-31T01:52:19;10.10;99.90
44894;DHT22;30625;52.206;21.030;2022-10-31T01:55:11;10.10;99.90
44894;DHT22;30625;52.206;21.030;2022-10-31T01:57:41;10.00;99.90
44894;DHT22;30625;52.206;21.030;2022-10-31T02:00:09;10.00;99.90
44894;DHT22;30625;52.206;21.030;2022-10-31T02:02:35;10.00;99.90
44894;DHT22;30625;52.206;21.030;2022-10-31T02:05:04;10.00;99.90
44894;DHT22;30625;52.206;21.030;2022-10-31T02:07:42;10.00;99.90
44894;DHT22;30625;52.206;21.030;2022-10-31T02:10:10;10.00;99.90
44894;DHT22;30625;52.206;21.030;2022-10-31T02:12:35;9.90;99.90
44894;DHT22;30625;52.206;21.030;2022-10-31T02:15:02;9.90;99.90
44894;DHT22;30625;52.206;21.030;2022-10-31T02:17:29;9.80;99.90
44894;DHT22;30625;52.206;21.030;2022-10-31T02:20:13;9.80;99.90
44894;DHT22;30625;52.206;21.030;2022-10-31T02:33:52;9.70;99.90
44894;DHT22;30625;52.206;21.030;2022-10-31T02:38:51;9.60;99.90
44894;DHT22;30625;52.206;21.030;2022-10-31T02:49:28;9.70;99.90
44894;DHT22;30625;52.206;21.030;2022-10-31T02:51:56;9.60;99.90
44894;DHT22;30625;52.206;21.030;2022-10-31T02:54:26;9.60;99.90
44894;DHT22;30625;52.206;21.030;2022-10-31T02:57:02;9.60;99.90
44894;DHT22;30625;52.206;21.030;2022-10-31T02:59:30;9.60;99.90
44894;DHT22;30625;52.206;21.030;2022-10-31T03:02:09;9.50;99.90
44894;DHT22;30625;52.206;21.030;2022-10-31T03:10:31;9.50;99.90
44894;DHT22;30625;52.206;21.030;2022-10-31T03:15:32;9.40;99.90
44894;DHT22;30625;52.206;21.030;2022-10-31T03:18:11;9.40;99.90
44894;DHT22;30625;52.206;21.030;2022-10-31T03:20:47;9.30;99.90
44894;DHT22;30625;52.206;21.030;2022-10-31T03:23:17;9.30;99.90
44894;DHT22;30625;52.206;21.030;2022-10-31T03:25:44;9.30;99.90
44894;DHT22;30625;52.206;21.030;2022-10-31T03:28:12;9.30;99.90
44894;DHT22;30625;52.206;21.030;2022-10-31T03:30:42;9.30;99.90
44894;DHT22;30625;52.206;21.030;2022-10-31T03:33:19;9.40;99.90
44894;DHT22;30625;52.206;21.030;2022-10-31T03:35:48;9.30;99.90
44894;DHT22;30625;52.206;21.030;2022-10-31T03:38:18;9.40;99.90
44894;DHT22;30625;52.206;21.030;2022-10-31T03:40:46;9.40;99.90
44894;DHT22;30625;52.206;21.030;2022-10-31T03:43:18;9.30;99.90
44894;DHT22;30625;52.206;21.030;2022-10-31T03:45:46;9.30;99.90
44894;DHT22;30625;52.206;21.030;2022-10-31T03:48:17;9.40;99.90
44894;DHT22;30625;52.206;21.030;2022-10-31T03:53:42;8.60;99.90
44894;DHT22;30625;52.206;21.030;2022-10-31T03:56:19;9.30;99.90
44894;DHT22;30625;52.206;21.030;2022-10-31T03:58:55;8.40;99.90
44894;DHT22;30625;52.206;21.030;2022-10-31T04:01:24;9.20;99.90
44894;DHT22;30625;52.206;21.030;2022-10-31T04:03:52;9.30;99.90
44894;DHT22;30625;52.206;21.030;2022-10-31T04:06:19;9.20;99.90
44894;DHT22;30625;52.206;21.030;2022-10-31T04:08:57;9.20;99.90
44894;DHT22;30625;52.206;21.030;2022-10-31T04:11:26;9.10;99.90
44894;DHT22;30625;52.206;21.030;2022-10-31T04:13:54;9.10;99.90
44894;DHT22;30625;52.206;21.030;2022-10-31T04:16:21;9.10;99.90
44894;DHT22;30625;52.206;21.030;2022-10-31T04:18:48;9.10;99.90
44894;DHT22;30625;52.206;21.030;2022-10-31T04:21:14;9.00;99.90
44894;DHT22;30625;52.206;21.030;2022-10-31T04:23:40;9.00;99.90
44894;DHT22;30625;52.206;21.030;2022-10-31T04:26:05;9.10;99.90
44894;DHT22;30625;52.206;21.030;2022-10-31T04:28:31;9.20;99.90
44894;DHT22;30625;52.206;21.030;2022-10-31T04:30:59;9.20;99.90
44894;DHT22;30625;52.206;21.030;2022-10-31T04:33:25;9.20;99.90
44894;DHT22;30625;52.206;21.030;2022-10-31T04:35:50;9.10;99.90
44894;DHT22;30625;52.206;21.030;2022-10-31T04:38:16;9.10;99.90
44894;DHT22;30625;52.206;21.030;2022-10-31T04:40:42;9.00;99.90
44894;DHT22;30625;52.206;21.030;2022-10-31T04:43:07;8.90;99.90
44894;DHT22;30625;52.206;21.030;2022-10-31T04:45:33;8.90;99.90
44894;DHT22;30625;52.206;21.030;2022-10-31T04:47:59;8.90;99.90
44894;DHT22;30625;52.206;21.030;2022-10-31T04:50:24;9.00;99.90
44894;DHT22;30625;52.206;21.030;2022-10-31T04:52:50;9.00;99.90
44894;DHT22;30625;52.206;21.030;2022-10-31T04:55:16;9.00;99.90
44894;DHT22;30625;52.206;21.030;2022-10-31T04:57:46;9.00;99.90
44894;DHT22;30625;52.206;21.030;2022-10-31T05:00:13;9.00;99.90
44894;DHT22;30625;52.206;21.030;2022-10-31T05:02:44;9.00;99.90
44894;DHT22;30625;52.206;21.030;2022-10-31T05:05:10;8.90;99.90
44894;DHT22;30625;52.206;21.030;2022-10-31T05:07:43;8.90;99.90
44894;DHT22;30625;52.206;21.030;2022-10-31T05:10:10;8.90;99.90
44894;DHT22;30625;52.206;21.030;2022-10-31T05:12:36;8.80;99.90
44894;DHT22;30625;52.206;21.030;2022-10-31T05:15:03;8.90;99.90
44894;DHT22;30625;52.206;21.030;2022-10-31T05:17:31;8.80;99.90
44894;DHT22;30625;52.206;21.030;2022-10-31T05:19:57;8.90;99.90
44894;DHT22;30625;52.206;21.030;2022-10-31T05:22:22;8.90;99.90
44894;DHT22;30625;52.206;21.030;2022-10-31T05:24:48;8.90;99.90
44894;DHT22;30625;52.206;21.030;2022-10-31T05:27:14;8.90;99.90
44894;DHT22;30625;52.206;21.030;2022-10-31T05:29:39;8.90;99.90
44894;DHT22;30625;52.206;21.030;2022-10-31T05:32:05;8.80;99.90
44894;DHT22;30625;52.206;21.030;2022-10-31T05:34:31;8.80;99.90
44894;DHT22;30625;52.206;21.030;2022-10-31T05:36:56;8.80;99.90
44894;DHT22;30625;52.206;21.030;2022-10-31T05:39:22;8.70;99.90
44894;DHT22;30625;52.206;21.030;2022-10-31T05:41:48;8.70;99.90
44894;DHT22;30625;52.206;21.030;2022-10-31T05:44:13;8.70;99.90
44894;DHT22;30625;52.206;21.030;2022-10-31T05:46:39;8.80;99.90
44894;DHT22;30625;52.206;21.030;2022-10-31T05:49:05;8.80;99.90
44894;DHT22;30625;52.206;21.030;2022-10-31T05:51:31;8.90;99.90
44894;DHT22;30625;52.206;21.030;2022-10-31T05:53:56;8.90;99.90
44894;DHT22;30625;52.206;21.030;2022-10-31T05:56:22;8.80;99.90
44894;DHT22;30625;52.206;21.030;2022-10-31T05:58:48;8.80;99.90
44894;DHT22;30625;52.206;21.030;2022-10-31T06:01:13;8.80;99.90
44894;DHT22;30625;52.206;21.030;2022-10-31T06:03:39;8.60;99.90
44894;DHT22;30625;52.206;21.030;2022-10-31T06:06:05;8.60;99.90
44894;DHT22;30625;52.206;21.030;2022-10-31T06:08:31;8.60;99.90
44894;DHT22;30625;52.206;21.030;2022-10-31T06:10:56;8.60;99.90
44894;DHT22;30625;52.206;21.030;2022-10-31T06:13:22;8.50;99.90
44894;DHT22;30625;52.206;21.030;2022-10-31T06:15:48;8.50;99.90
44894;DHT22;30625;52.206;21.030;2022-10-31T06:18:13;8.40;99.90
44894;DHT22;30625;52.206;21.030;2022-10-31T06:20:39;8.40;99.90
44894;DHT22;30625;52.206;21.030;2022-10-31T06:23:05;8.40;99.90
44894;DHT22;30625;52.206;21.030;2022-10-31T06:25:32;8.30;99.90
44894;DHT22;30625;52.206;21.030;2022-10-31T06:27:58;8.30;99.90
44894;DHT22;30625;52.206;21.030;2022-10-31T06:30:24;8.20;99.90
44894;DHT22;30625;52.206;21.030;2022-10-31T06:32:50;8.20;99.90
44894;DHT22;30625;52.206;21.030;2022-10-31T06:35:16;8.20;99.90
44894;DHT22;30625;52.206;21.030;2022-10-31T06:37:42;8.20;99.90
44894;DHT22;30625;52.206;21.030;2022-10-31T06:40:08;8.20;99.90
44894;DHT22;30625;52.206;21.030;2022-10-31T06:42:33;8.20;99.90
44894;DHT22;30625;52.206;21.030;2022-10-31T06:44:59;8.30;99.90
44894;DHT22;30625;52.206;21.030;2022-10-31T06:47:25;8.30;99.90
44894;DHT22;30625;52.206;21.030;2022-10-31T06:49:51;8.40;99.90
44894;DHT22;30625;52.206;21.030;2022-10-31T06:52:16;8.50;99.90
44894;DHT22;30625;52.206;21.030;2022-10-31T06:54:42;8.60;99.90
44894;DHT22;30625;52.206;21.030;2022-10-31T06:57:08;8.70;99.90
44894;DHT22;30625;52.206;21.030;2022-10-31T06:59:33;8.70;99.90
44894;DHT22;30625;52.206;21.030;2022-10-31T07:01:59;8.80;99.90
44894;DHT22;30625;52.206;21.030;2022-10-31T07:04:25;8.70;99.90
44894;DHT22;30625;52.206;21.030;2022-10-31T07:06:51;8.90;99.90
44894;DHT22;30625;52.206;21.030;2022-10-31T07:09:18;8.90;99.90
44894;DHT22;30625;52.206;21.030;2022-10-31T07:11:44;9.00;99.90
44894;DHT22;30625;52.206;21.030;2022-10-31T07:14:09;9.00;99.90
44894;DHT22;30625;52.206;21.030;2022-10-31T07:16:35;9.10;99.90
44894;DHT22;30625;52.206;21.030;2022-10-31T07:19:01;9.20;99.90
44894;DHT22;30625;52.206;21.030;2022-10-31T07:21:26;9.30;99.90
44894;DHT22;30625;52.206;21.030;2022-10-31T07:23:52;9.40;99.90
44894;DHT22;30625;52.206;21.030;2022-10-31T07:26:17;9.50;99.90
44894;DHT22;30625;52.206;21.030;2022-10-31T07:28:43;9.40;99.90
44894;DHT22;30625;52.206;21.030;2022-10-31T07:31:10;9.50;99.90
44894;DHT22;30625;52.206;21.030;2022-10-31T07:33:36;9.50;99.90
44894;DHT22;30625;52.206;21.030;2022-10-31T07:36:02;9.60;99.90
44894;DHT22;30625;52.206;21.030;2022-10-31T07:38:27;9.60;99.90
44894;DHT22;30625;52.206;21.030;2022-10-31T07:40:53;9.70;99.90
44894;DHT22;30625;52.206;21.030;2022-10-31T07:43:19;9.60;99.90
44894;DHT22;30625;52.206;21.030;2022-10-31T07:45:50;9.70;99.90
44894;DHT22;30625;52.206;21.030;2022-10-31T07:48:16;9.70;99.90
44894;DHT22;30625;52.206;21.030;2022-10-31T07:50:42;9.80;99.90
44894;DHT22;30625;52.206;21.030;2022-10-31T07:53:11;9.60;99.90
44894;DHT22;30625;52.206;21.030;2022-10-31T07:55:37;9.60;99.90
44894;DHT22;30625;52.206;21.030;2022-10-31T07:58:07;9.50;99.90
44894;DHT22;30625;52.206;21.030;2022-10-31T08:00:34;9.40;99.90
44894;DHT22;30625;52.206;21.030;2022-10-31T08:03:09;9.50;99.90
44894;DHT22;30625;52.206;21.030;2022-10-31T08:05:35;9.50;99.90
44894;DHT22;30625;52.206;21.030;2022-10-31T08:08:03;9.40;99.90
44894;DHT22;30625;52.206;21.030;2022-10-31T08:10:29;9.50;99.90
44894;DHT22;30625;52.206;21.030;2022-10-31T08:13:00;9.70;99.90
44894;DHT22;30625;52.206;21.030;2022-10-31T08:15:26;9.70;99.90
44894;DHT22;30625;52.206;21.030;2022-10-31T08:17:52;9.80;99.90
44894;DHT22;30625;52.206;21.030;2022-10-31T08:20:18;9.90;99.90
44894;DHT22;30625;52.206;21.030;2022-10-31T08:22:56;10.00;99.90
44894;DHT22;30625;52.206;21.030;2022-10-31T08:25:22;10.10;99.90
44894;DHT22;30625;52.206;21.030;2022-10-31T08:27:51;10.20;99.90
44894;DHT22;30625;52.206;21.030;2022-10-31T08:30:21;10.20;99.90
44894;DHT22;30625;52.206;21.030;2022-10-31T08:32:47;10.20;99.90
44894;DHT22;30625;52.206;21.030;2022-10-31T08:35:13;10.30;99.90
44894;DHT22;30625;52.206;21.030;2022-10-31T08:37:39;10.30;99.90
44894;DHT22;30625;52.206;21.030;2022-10-31T08:40:05;10.40;99.90
44894;DHT22;30625;52.206;21.030;2022-10-31T08:42:32;10.60;99.90
44894;DHT22;30625;52.206;21.030;2022-10-31T08:44:58;10.80;99.90
44894;DHT22;30625;52.206;21.030;2022-10-31T08:47:23;10.80;99.90
44894;DHT22;30625;52.206;21.030;2022-10-31T08:49:49;10.90;99.90
44894;DHT22;30625;52.206;21.030;2022-10-31T08:52:15;11.00;99.90
44894;DHT22;30625;52.206;21.030;2022-10-31T08:54:41;11.20;99.90
44894;DHT22;30625;52.206;21.030;2022-10-31T08:57:07;11.40;99.90
44894;DHT22;30625;52.206;21.030;2022-10-31T08:59:32;11.40;99.90
44894;DHT22;30625;52.206;21.030;2022-10-31T09:01:58;11.50;99.90
44894;DHT22;30625;52.206;21.030;2022-10-31T09:04:24;11.50;99.90
44894;DHT22;30625;52.206;21.030;2022-10-31T09:06:49;11.60;99.90
44894;DHT22;30625;52.206;21.030;2022-10-31T09:09:15;11.70;99.90
44894;DHT22;30625;52.206;21.030;2022-10-31T09:11:40;11.60;99.90
44894;DHT22;30625;52.206;21.030;2022-10-31T09:14:06;11.60;99.90
44894;DHT22;30625;52.206;21.030;2022-10-31T09:16:32;11.70;99.90
44894;DHT22;30625;52.206;21.030;2022-10-31T09:18:58;11.90;99.90
44894;DHT22;30625;52.206;21.030;2022-10-31T09:21:23;12.20;99.90
44894;DHT22;30625;52.206;21.030;2022-10-31T09:23:49;12.40;99.90
44894;DHT22;30625;52.206;21.030;2022-10-31T09:26:15;12.60;99.90
44894;DHT22;30625;52.206;21.030;2022-10-31T09:28:40;12.70;99.90
44894;DHT22;30625;52.206;21.030;2022-10-31T09:31:06;12.80;99.90
44894;DHT22;30625;52.206;21.030;2022-10-31T09:33:32;12.80;99.90
44894;DHT22;30625;52.206;21.030;2022-10-31T09:35:58;13.10;99.90
44894;DHT22;30625;52.206;21.030;2022-10-31T09:38:24;13.40;99.90
44894;DHT22;30625;52.206;21.030;2022-10-31T09:41:07;13.60;99.90
44894;DHT22;30625;52.206;21.030;2022-10-31T09:51:54;14.30;99.90
44894;DHT22;30625;52.206;21.030;2022-10-31T09:57:14;14.90;99.90
44894;DHT22;30625;52.206;21.030;2022-10-31T09:59:43;15.20;99.90
44894;DHT22;30625;52.206;21.030;2022-10-31T10:02:53;15.40;99.90
44894;DHT22;30625;52.206;21.030;2022-10-31T10:05:39;15.80;99.90
44894;DHT22;30625;52.206;21.030;2022-10-31T10:08:16;16.00;99.90
44894;DHT22;30625;52.206;21.030;2022-10-31T10:10:48;16.30;99.90
44894;DHT22;30625;52.206;21.030;2022-10-31T10:30:54;16.40;99.90
44894;DHT22;30625;52.206;21.030;2022-10-31T10:33:18;16.40;99.90
44894;DHT22;30625;52.206;21.030;2022-10-31T10:35:54;16.50;99.90
44894;DHT22;30625;52.206;21.030;2022-10-31T10:40:53;16.60;99.90
44894;DHT22;30625;52.206;21.030;2022-10-31T10:43:34;16.40;99.90
44894;DHT22;30625;52.206;21.030;2022-10-31T10:49:19;16.30;99.90
44894;DHT22;30625;52.206;21.030;2022-10-31T10:51:52;16.10;99.90
44894;DHT22;30625;52.206;21.030;2022-10-31T10:57:22;15.80;99.90
44894;DHT22;30625;52.206;21.030;2022-10-31T10:59:52;15.70;99.90
44894;DHT22;30625;52.206;21.030;2022-10-31T11:02:31;15.70;99.90
44894;DHT22;30625;52.206;21.030;2022-10-31T11:04:59;15.70;99.90
44894;DHT22;30625;52.206;21.030;2022-10-31T11:07:37;15.70;99.90
44894;DHT22;30625;52.206;21.030;2022-10-31T11:10:05;15.90;99.90
44894;DHT22;30625;52.206;21.030;2022-10-31T11:12:39;16.00;99.90
44894;DHT22;30625;52.206;21.030;2022-10-31T11:15:20;16.00;99.90
44894;DHT22;30625;52.206;21.030;2022-10-31T11:17:49;16.10;99.90
44894;DHT22;30625;52.206;21.030;2022-10-31T11:22:43;16.20;99.90
44894;DHT22;30625;52.206;21.030;2022-10-31T11:25:26;16.30;99.90
44894;DHT22;30625;52.206;21.030;2022-10-31T11:28:03;16.20;99.90
44894;DHT22;30625;52.206;21.030;2022-10-31T11:30:30;16.10;99.90
44894;DHT22;30625;52.206;21.030;2022-10-31T11:33:00;16.10;99.90
44894;DHT22;30625;52.206;21.030;2022-10-31T11:35:26;16.30;99.90
44894;DHT22;30625;52.206;21.030;2022-10-31T11:37:53;16.20;99.90
44894;DHT22;30625;52.206;21.030;2022-10-31T11:40:22;16.30;99.90
44894;DHT22;30625;52.206;21.030;2022-10-31T11:42:50;16.20;99.90
44894;DHT22;30625;52.206;21.030;2022-10-31T11:45:27;16.30;99.90
44894;DHT22;30625;52.206;21.030;2022-10-31T11:47:56;16.20;99.90
44894;DHT22;30625;52.206;21.030;2022-10-31T11:50:36;16.20;99.90
44894;DHT22;30625;52.206;21.030;2022-10-31T11:53:03;16.40;99.90
44894;DHT22;30625;52.206;21.030;2022-10-31T11:55:35;16.50;99.90
44894;DHT22;30625;52.206;21.030;2022-10-31T11:58:02;16.70;99.90
44894;DHT22;30625;52.206;21.030;2022-10-31T12:03:12;16.80;99.90
44894;DHT22;30625;52.206;21.030;2022-10-31T12:05:40;16.90;99.90
44894;DHT22;30625;52.206;21.030;2022-10-31T12:08:11;17.00;99.90
44894;DHT22;30625;52.206;21.030;2022-10-31T12:19:03;16.90;99.90
44894;DHT22;30625;52.206;21.030;2022-10-31T12:21:45;16.80;99.90
44894;DHT22;30625;52.206;21.030;2022-10-31T12:38:02;16.90;99.90
44894;DHT22;30625;52.206;21.030;2022-10-31T12:43:55;17.00;99.90
44894;DHT22;30625;52.206;21.030;2022-10-31T12:46:02;17.00;99.90
44894;DHT22;30625;52.206;21.030;2022-10-31T12:48:57;17.00;99.90
44894;DHT22;30625;52.206;21.030;2022-10-31T12:54:19;17.00;99.90
44894;DHT22;30625;52.206;21.030;2022-10-31T12:57:19;17.10;99.90
44894;DHT22;30625;52.206;21.030;2022-10-31T12:59:55;17.00;99.90
44894;DHT22;30625;52.206;21.030;2022-10-31T13:05:29;17.00;99.90
44894;DHT22;30625;52.206;21.030;2022-10-31T13:08:08;17.00;99.90
44894;DHT22;30625;52.206;21.030;2022-10-31T13:14:01;17.00;99.90
44894;DHT22;30625;52.206;21.030;2022-10-31T13:16:20;16.90;99.90
44894;DHT22;30625;52.206;21.030;2022-10-31T13:19:09;16.80;99.90
44894;DHT22;30625;52.206;21.030;2022-10-31T13:24:36;16.70;99.90
44894;DHT22;30625;52.206;21.030;2022-10-31T13:27:15;16.60;99.90
44894;DHT22;30625;52.206;21.030;2022-10-31T13:30:01;16.50;99.90
44894;DHT22;30625;52.206;21.030;2022-10-31T13:35:30;16.40;99.90
44894;DHT22;30625;52.206;21.030;2022-10-31T13:45:53;15.90;99.90
44894;DHT22;30625;52.206;21.030;2022-10-31T13:48:39;15.80;99.90
44894;DHT22;30625;52.206;21.030;2022-10-31T13:51:09;15.80;99.90
44894;DHT22;30625;52.206;21.030;2022-10-31T13:56:35;15.60;99.90
44894;DHT22;30625;52.206;21.030;2022-10-31T13:59:24;15.50;99.90
44894;DHT22;30625;52.206;21.030;2022-10-31T14:01:57;15.40;99.90
44894;DHT22;30625;52.206;21.030;2022-10-31T14:04:28;15.30;99.90
44894;DHT22;30625;52.206;21.030;2022-10-31T14:07:10;15.20;99.90
44894;DHT22;30625;52.206;21.030;2022-10-31T14:12:46;15.10;99.90
44894;DHT22;30625;52.206;21.030;2022-10-31T14:15:22;15.10;99.90
44894;DHT22;30625;52.206;21.030;2022-10-31T14:17:59;15.00;99.90
44894;DHT22;30625;52.206;21.030;2022-10-31T14:20:49;14.90;99.90
44894;DHT22;30625;52.206;21.030;2022-10-31T14:23:38;14.80;99.90
44894;DHT22;30625;52.206;21.030;2022-10-31T14:31:42;14.40;99.90
44894;DHT22;30625;52.206;21.030;2022-10-31T14:36:42;14.30;99.90
44894;DHT22;30625;52.206;21.030;2022-10-31T14:39:31;14.20;99.90
44894;DHT22;30625;52.206;21.030;2022-10-31T14:44:59;14.00;99.90
44894;DHT22;30625;52.206;21.030;2022-10-31T14:47:45;13.90;99.90
44894;DHT22;30625;52.206;21.030;2022-10-31T14:52:54;13.70;99.90
44894;DHT22;30625;52.206;21.030;2022-10-31T14:55:21;13.60;99.90
44894;DHT22;30625;52.206;21.030;2022-10-31T14:57:55;13.60;99.90
44894;DHT22;30625;52.206;21.030;2022-10-31T15:00:23;13.50;99.90
44894;DHT22;30625;52.206;21.030;2022-10-31T15:05:21;13.40;99.90
44894;DHT22;30625;52.206;21.030;2022-10-31T15:07:57;13.30;99.90
44894;DHT22;30625;52.206;21.030;2022-10-31T15:10:29;13.20;99.90
44894;DHT22;30625;52.206;21.030;2022-10-31T15:12:55;13.10;99.90
44894;DHT22;30625;52.206;21.030;2022-10-31T15:15:22;13.00;99.90
44894;DHT22;30625;52.206;21.030;2022-10-31T15:17:57;13.00;99.90
44894;DHT22;30625;52.206;21.030;2022-10-31T15:20:28;12.90;99.90
44894;DHT22;30625;52.206;21.030;2022-10-31T15:22:58;13.00;99.90
44894;DHT22;30625;52.206;21.030;2022-10-31T15:25:28;12.90;99.90
44894;DHT22;30625;52.206;21.030;2022-10-31T15:27:54;12.90;99.90
44894;DHT22;30625;52.206;21.030;2022-10-31T15:30:23;12.80;99.90
44894;DHT22;30625;52.206;21.030;2022-10-31T15:32:49;12.80;99.90
44894;DHT22;30625;52.206;21.030;2022-10-31T15:35:27;12.80;99.90
44894;DHT22;30625;52.206;21.030;2022-10-31T15:37:53;12.70;99.90
44894;DHT22;30625;52.206;21.030;2022-10-31T15:40:20;12.70;99.90
44894;DHT22;30625;52.206;21.030;2022-10-31T15:43:04;12.70;99.90
44894;DHT22;30625;52.206;21.030;2022-10-31T15:45:30;12.70;99.90
44894;DHT22;30625;52.206;21.030;2022-10-31T15:48:00;12.60;99.90
44894;DHT22;30625;52.206;21.030;2022-10-31T15:50:38;12.60;99.90
44894;DHT22;30625;52.206;21.030;2022-10-31T15:53:14;12.60;99.90
44894;DHT22;30625;52.206;21.030;2022-10-31T15:55:51;12.60;99.90
44894;DHT22;30625;52.206;21.030;2022-10-31T15:58:18;12.50;99.90
44894;DHT22;30625;52.206;21.030;2022-10-31T16:00:44;12.60;99.90
44894;DHT22;30625;52.206;21.030;2022-10-31T16:05:49;12.60;99.90
44894;DHT22;30625;52.206;21.030;2022-10-31T16:10:49;12.60;99.90
44894;DHT22;30625;52.206;21.030;2022-10-31T16:13:15;12.60;99.90
44894;DHT22;30625;52.206;21.030;2022-10-31T16:15:49;12.50;99.90
44894;DHT22;30625;52.206;21.030;2022-10-31T16:18:16;12.50;99.90
44894;DHT22;30625;52.206;21.030;2022-10-31T16:20:48;12.50;99.90
44894;DHT22;30625;52.206;21.030;2022-10-31T16:23:17;12.60;99.90
44894;DHT22;30625;52.206;21.030;2022-10-31T16:25:43;12.60;99.90
44894;DHT22;30625;52.206;21.030;2022-10-31T16:28:19;12.60;99.90
44894;DHT22;30625;52.206;21.030;2022-10-31T16:30:46;12.60;99.90
44894;DHT22;30625;52.206;21.030;2022-10-31T16:33:32;12.70;99.90
44894;DHT22;30625;52.206;21.030;2022-10-31T16:38:54;12.70;99.90
44894;DHT22;30625;52.206;21.030;2022-10-31T16:41:20;12.70;99.90
44894;DHT22;30625;52.206;21.030;2022-10-31T16:43:45;12.70;99.90
44894;DHT22;30625;52.206;21.030;2022-10-31T16:46:17;12.70;99.90
44894;DHT22;30625;52.206;21.030;2022-10-31T16:48:43;12.80;99.90
44894;DHT22;30625;52.206;21.030;2022-10-31T16:51:09;12.80;99.90
44894;DHT22;30625;52.206;21.030;2022-10-31T16:53:35;12.80;99.90
44894;DHT22;30625;52.206;21.030;2022-10-31T16:56:03;12.90;99.90
44894;DHT22;30625;52.206;21.030;2022-10-31T16:58:33;12.90;99.90
44894;DHT22;30625;52.206;21.030;2022-10-31T17:01:04;12.90;99.90
44894;DHT22;30625;52.206;21.030;2022-10-31T17:03:31;12.90;99.90
44894;DHT22;30625;52.206;21.030;2022-10-31T17:05:56;12.90;99.90
44894;DHT22;30625;52.206;21.030;2022-10-31T17:08:22;12.90;99.90
44894;DHT22;30625;52.206;21.030;2022-10-31T17:10:52;12.90;99.90
44894;DHT22;30625;52.206;21.030;2022-10-31T17:13:22;12.90;99.90
44894;DHT22;30625;52.206;21.030;2022-10-31T17:15:50;12.90;99.90
44894;DHT22;30625;52.206;21.030;2022-10-31T17:18:17;12.80;99.90
44894;DHT22;30625;52.206;21.030;2022-10-31T17:20:44;12.90;99.90
44894;DHT22;30625;52.206;21.030;2022-10-31T17:23:12;13.00;99.90
44894;DHT22;30625;52.206;21.030;2022-10-31T17:25:38;13.00;99.90
44894;DHT22;30625;52.206;21.030;2022-10-31T17:28:04;13.00;99.90
44894;DHT22;30625;52.206;21.030;2022-10-31T17:30:31;13.00;99.90
44894;DHT22;30625;52.206;21.030;2022-10-31T17:32:57;13.00;99.90
44894;DHT22;30625;52.206;21.030;2022-10-31T17:35:23;13.00;99.90
44894;DHT22;30625;52.206;21.030;2022-10-31T17:37:49;13.00;99.90
44894;DHT22;30625;52.206;21.030;2022-10-31T17:40:20;12.90;99.90
44894;DHT22;30625;52.206;21.030;2022-10-31T17:42:54;12.90;99.90
44894;DHT22;30625;52.206;21.030;2022-10-31T17:45:22;12.80;99.90
44894;DHT22;30625;52.206;21.030;2022-10-31T17:47:49;12.80;99.90
44894;DHT22;30625;52.206;21.030;2022-10-31T17:50:17;12.80;99.90
44894;DHT22;30625;52.206;21.030;2022-10-31T17:52:43;12.80;99.90
44894;DHT22;30625;52.206;21.030;2022-10-31T17:55:09;12.80;99.90
44894;DHT22;30625;52.206;21.030;2022-10-31T17:57:35;12.70;99.90
44894;DHT22;30625;52.206;21.030;2022-10-31T18:00:04;12.80;99.90
44894;DHT22;30625;52.206;21.030;2022-10-31T18:02:30;12.70;99.90
44894;DHT22;30625;52.206;21.030;2022-10-31T18:04:55;12.70;99.90
44894;DHT22;30625;52.206;21.030;2022-10-31T18:07:21;12.70;99.90
44894;DHT22;30625;52.206;21.030;2022-10-31T18:09:47;12.70;99.90
44894;DHT22;30625;52.206;21.030;2022-10-31T18:12:13;12.70;99.90
44894;DHT22;30625;52.206;21.030;2022-10-31T18:14:40;12.70;99.90